createdAt,value
2022-11-23T00:00:36.282Z,65.52
2022-11-23T00:01:36.563Z,65.7
2022-11-23T00:02:36.454Z,65.7
2022-11-23T00:03:36.596Z,66.47
2022-11-23T00:04:36.612Z,66.18
2022-11-23T00:05:36.621Z,66.28
2022-11-23T00:06:36.647Z,66.28
2022-11-23T00:07:36.529Z,65.99
2022-11-23T00:08:36.677Z,66.28
2022-11-23T00:09:36.901Z,66.18
2022-11-23T00:10:36.707Z,66.38
2022-11-23T00:11:36.472Z,66.09
2022-11-23T00:12:36.862Z,66.18
2022-11-23T00:13:36.881Z,66.09
2022-11-23T00:14:36.771Z,66.28
2022-11-23T00:15:36.799Z,66.66
2022-11-23T00:16:36.557Z,66.56
2022-11-23T00:17:36.834Z,66.18
2022-11-23T00:18:36.855Z,66.75
2022-11-23T00:19:37.079Z,66.56
2022-11-23T00:20:36.877Z,66.66
2022-11-23T00:21:36.636Z,66.38
2022-11-23T00:22:36.911Z,66.38
2022-11-23T00:23:36.931Z,66.28
2022-11-23T00:24:37.066Z,66.18
2022-11-23T00:25:36.964Z,66.38
2022-11-23T00:26:36.730Z,66.28
2022-11-23T00:27:37.006Z,66.28
2022-11-23T00:28:37.058Z,66.85
2022-11-23T00:29:37.055Z,67.04
2022-11-23T00:30:37.044Z,66.85
2022-11-23T00:31:37.069Z,66.94
2022-11-23T00:32:37.077Z,66.75
2022-11-23T00:33:37.103Z,66.56
2022-11-23T00:34:37.125Z,66.66
2022-11-23T00:35:36.873Z,66.85
2022-11-23T00:36:37.146Z,66.56
2022-11-23T00:37:37.179Z,66.75
2022-11-23T00:38:37.185Z,67
2022-11-23T00:39:37.196Z,67.1
2022-11-23T00:40:37.212Z,67.04
2022-11-23T00:41:36.969Z,66.94
2022-11-23T00:42:40.633Z,67.1
2022-11-23T00:43:37.277Z,67
2022-11-23T00:44:37.312Z,67.2
2022-11-23T00:45:37.353Z,67.1
2022-11-23T00:46:37.317Z,67
2022-11-23T00:47:37.068Z,66.91
2022-11-23T00:48:37.356Z,66.72
2022-11-23T00:49:37.120Z,66.72
2022-11-23T00:50:37.386Z,66.72
2022-11-23T00:51:37.407Z,66.82
2022-11-23T00:52:37.518Z,66.82
2022-11-23T00:53:37.180Z,66.82
2022-11-23T00:54:37.452Z,66.72
2022-11-23T00:55:37.473Z,67.2
2022-11-23T00:56:37.489Z,67
2022-11-23T00:57:37.248Z,67.39
2022-11-23T00:58:37.258Z,67.29
2022-11-23T00:59:37.545Z,67.1
2022-11-23T01:00:37.606Z,67.48
2022-11-23T01:01:37.683Z,67.48
2022-11-23T01:02:37.588Z,67.39
2022-11-23T01:03:37.608Z,67.29
2022-11-23T01:04:37.634Z,67.68
2022-11-23T01:05:37.633Z,67.58
2022-11-23T01:06:37.396Z,67.58
2022-11-23T01:07:37.750Z,67.68
2022-11-23T01:08:37.691Z,67.68
2022-11-23T01:09:37.711Z,67.48
2022-11-23T01:10:37.740Z,67.68
2022-11-23T01:11:37.754Z,67.48
2022-11-23T01:12:37.757Z,67.68
2022-11-23T01:13:37.794Z,67.58
2022-11-23T01:14:37.818Z,67.68
2022-11-23T01:15:37.548Z,67.96
2022-11-23T01:16:37.588Z,67.86
2022-11-23T01:17:37.863Z,67.68
2022-11-23T01:18:37.742Z,67.96
2022-11-23T01:19:37.868Z,67.58
2022-11-23T01:20:37.895Z,67.58
2022-11-23T01:21:37.905Z,67.77
2022-11-23T01:22:37.925Z,67.77
2022-11-23T01:23:37.676Z,67.58
2022-11-23T01:24:37.952Z,67.68
2022-11-23T01:25:37.973Z,67.68
2022-11-23T01:26:38.002Z,67.68
2022-11-23T01:27:37.746Z,68.05
2022-11-23T01:28:37.765Z,67.86
2022-11-23T01:29:38.132Z,67.86
2022-11-23T01:30:38.060Z,68.44
2022-11-23T01:31:41.796Z,67.86
2022-11-23T01:32:37.856Z,68.05
2022-11-23T01:33:38.131Z,68.44
2022-11-23T01:34:38.124Z,68.15
2022-11-23T01:35:37.885Z,68.34
2022-11-23T01:36:38.161Z,68.44
2022-11-23T01:37:38.176Z,68.34
2022-11-23T01:38:38.191Z,68.05
2022-11-23T01:39:38.202Z,68.34
2022-11-23T01:40:38.220Z,68.05
2022-11-23T01:41:37.985Z,68.53
2022-11-23T01:42:38.260Z,68.24
2022-11-23T01:43:38.014Z,68.05
2022-11-23T01:44:38.290Z,68.24
2022-11-23T01:45:38.302Z,68.24
2022-11-23T01:46:38.323Z,68.15
2022-11-23T01:47:38.086Z,68.15
2022-11-23T01:48:38.385Z,68.15
2022-11-23T01:49:38.395Z,68.82
2022-11-23T01:50:38.385Z,68.72
2022-11-23T01:51:38.414Z,67.96
2022-11-23T01:52:38.472Z,68.63
2022-11-23T01:53:38.180Z,68.53
2022-11-23T01:54:38.452Z,68.24
2022-11-23T01:55:38.479Z,68.72
2022-11-23T01:56:38.231Z,68.34
2022-11-23T01:57:38.246Z,68.44
2022-11-23T01:58:38.529Z,68.63
2022-11-23T01:59:38.282Z,68.53
2022-11-23T02:00:38.554Z,68.53
2022-11-23T02:01:38.684Z,68.53
2022-11-23T02:02:38.586Z,68.63
2022-11-23T02:03:38.602Z,69.01
2022-11-23T02:04:38.391Z,68.82
2022-11-23T02:05:38.768Z,68.63
2022-11-23T02:06:38.652Z,68.53
2022-11-23T02:07:38.789Z,68.44
2022-11-23T02:08:38.694Z,69.01
2022-11-23T02:09:38.705Z,69.01
2022-11-23T02:10:38.724Z,68.53
2022-11-23T02:11:38.739Z,68.34
2022-11-23T02:12:38.800Z,68.82
2022-11-23T02:13:38.517Z,68.44
2022-11-23T02:14:38.787Z,68.53
2022-11-23T02:15:38.809Z,69.1
2022-11-23T02:16:38.564Z,69.01
2022-11-23T02:17:38.842Z,69.01
2022-11-23T02:18:38.853Z,69.01
2022-11-23T02:19:38.871Z,69.01
2022-11-23T02:20:38.914Z,68.34
2022-11-23T02:21:38.933Z,68.34
2022-11-23T02:22:38.912Z,68.44
2022-11-23T02:23:38.938Z,68.63
2022-11-23T02:24:38.954Z,68.72
2022-11-23T02:25:38.710Z,69.45
2022-11-23T02:26:38.729Z,68.63
2022-11-23T02:27:42.681Z,69.45
2022-11-23T02:28:39.021Z,68.72
2022-11-23T02:29:39.039Z,69.29
2022-11-23T02:30:39.054Z,69.29
2022-11-23T02:31:39.071Z,69.35
2022-11-23T02:32:38.833Z,69.17
2022-11-23T02:33:39.107Z,69.1
2022-11-23T02:34:39.118Z,68.91
2022-11-23T02:35:39.140Z,69.07
2022-11-23T02:36:39.176Z,69.01
2022-11-23T02:37:39.190Z,69.1
2022-11-23T02:38:38.927Z,69.01
2022-11-23T02:39:39.213Z,68.98
2022-11-23T02:40:38.958Z,68.88
2022-11-23T02:41:38.976Z,68.98
2022-11-23T02:42:39.257Z,68.98
2022-11-23T02:43:39.267Z,69.07
2022-11-23T02:44:39.023Z,69.07
2022-11-23T02:45:39.304Z,69.26
2022-11-23T02:46:39.340Z,69.26
2022-11-23T02:47:39.345Z,69.17
2022-11-23T02:48:39.353Z,69.07
2022-11-23T02:49:39.107Z,69.54
2022-11-23T02:50:39.389Z,69.64
2022-11-23T02:51:39.398Z,69.74
2022-11-23T02:52:39.384Z,69.45
2022-11-23T02:53:39.460Z,69.35
2022-11-23T02:54:39.454Z,69.17
2022-11-23T02:55:39.467Z,69.54
2022-11-23T02:56:39.490Z,69.45
2022-11-23T02:57:39.498Z,69.45
2022-11-23T02:58:39.260Z,69.74
2022-11-23T02:59:39.545Z,69.35
2022-11-23T03:00:39.417Z,69.45
2022-11-23T03:01:39.303Z,69.35
2022-11-23T03:02:39.587Z,69.35
2022-11-23T03:03:39.601Z,69.35
2022-11-23T03:04:39.628Z,69.35
2022-11-23T03:05:39.631Z,69.54
2022-11-23T03:06:39.647Z,69.54
2022-11-23T03:07:39.715Z,69.54
2022-11-23T03:08:39.726Z,69.45
2022-11-23T03:09:39.720Z,69.93
2022-11-23T03:10:39.729Z,69.93
2022-11-23T03:11:39.740Z,70.12
2022-11-23T03:12:39.748Z,69.93
2022-11-23T03:13:39.766Z,69.93
2022-11-23T03:14:39.780Z,69.54
2022-11-23T03:15:39.800Z,69.83
2022-11-23T03:16:39.563Z,69.93
2022-11-23T03:17:39.827Z,70.02
2022-11-23T03:18:39.591Z,69.83
2022-11-23T03:19:39.607Z,69.64
2022-11-23T03:20:39.622Z,69.93
2022-11-23T03:21:39.633Z,69.74
2022-11-23T03:22:39.922Z,69.54
2022-11-23T03:23:39.677Z,69.93
2022-11-23T03:24:39.718Z,69.54
2022-11-23T03:25:40.026Z,69.64
2022-11-23T03:26:39.720Z,69.83
2022-11-23T03:27:39.742Z,69.54
2022-11-23T03:28:40.016Z,69.83
2022-11-23T03:29:39.896Z,70.31
2022-11-23T03:30:40.084Z,70.4
2022-11-23T03:31:39.804Z,70.12
2022-11-23T03:32:40.084Z,70.4
2022-11-23T03:33:39.840Z,70.31
2022-11-23T03:34:40.138Z,70.31
2022-11-23T03:35:40.129Z,70.21
2022-11-23T03:36:40.144Z,70.21
2022-11-23T03:37:39.903Z,70.21
2022-11-23T03:38:40.171Z,70.21
2022-11-23T03:39:47.141Z,70.31
2022-11-23T03:40:39.949Z,70.21
2022-11-23T03:41:40.253Z,70.5
2022-11-23T03:42:40.245Z,70.4
2022-11-23T03:43:40.009Z,70.31
2022-11-23T03:44:40.017Z,70.31
2022-11-23T03:45:40.291Z,70.21
2022-11-23T03:46:40.303Z,69.93
2022-11-23T03:47:40.332Z,70.02
2022-11-23T03:48:40.129Z,70.31
2022-11-23T03:49:40.357Z,70.31
2022-11-23T03:50:40.370Z,70.31
2022-11-23T03:51:40.129Z,70.31
2022-11-23T03:52:40.668Z,70.5
2022-11-23T03:53:40.433Z,70.02
2022-11-23T03:54:40.435Z,70.21
2022-11-23T03:55:40.480Z,70.4
2022-11-23T03:56:40.215Z,70.4
2022-11-23T03:57:40.510Z,70.21
2022-11-23T03:58:40.508Z,70.31
2022-11-23T03:59:40.259Z,70.21
2022-11-23T04:00:40.655Z,70.5
2022-11-23T04:01:40.553Z,70.5
2022-11-23T04:02:40.573Z,70.5
2022-11-23T04:03:40.599Z,70.4
2022-11-23T04:04:40.596Z,70.5
2022-11-23T04:05:40.620Z,70.5
2022-11-23T04:06:40.377Z,70.69
2022-11-23T04:07:40.781Z,70.78
2022-11-23T04:08:40.673Z,70.78
2022-11-23T04:09:40.687Z,69.83
2022-11-23T04:10:40.701Z,70.21
2022-11-23T04:11:40.737Z,70.69
2022-11-23T04:12:40.473Z,70.59
2022-11-23T04:13:40.778Z,70.5
2022-11-23T04:14:40.767Z,70.5
2022-11-23T04:15:40.788Z,70.31
2022-11-23T04:16:40.798Z,70.59
2022-11-23T04:17:40.820Z,70.69
2022-11-23T04:18:40.570Z,70.21
2022-11-23T04:19:40.592Z,70.21
2022-11-23T04:20:41.015Z,70.31
2022-11-23T04:21:40.885Z,70.21
2022-11-23T04:22:40.900Z,70.21
2022-11-23T04:23:40.915Z,70.4
2022-11-23T04:24:40.670Z,70.4
2022-11-23T04:25:40.946Z,70.4
2022-11-23T04:26:40.704Z,70.59
2022-11-23T04:27:40.745Z,70.69
2022-11-23T04:28:40.993Z,70.78
2022-11-23T04:29:41.057Z,70.59
2022-11-23T04:30:41.028Z,70.5
2022-11-23T04:31:41.039Z,70.5
2022-11-23T04:32:41.067Z,70.5
2022-11-23T04:33:41.072Z,70.4
2022-11-23T04:34:41.097Z,70.5
2022-11-23T04:35:40.852Z,70.59
2022-11-23T04:36:41.124Z,70.4
2022-11-23T04:37:41.153Z,70.5
2022-11-23T04:38:41.167Z,70.5
2022-11-23T04:39:40.919Z,70.4
2022-11-23T04:40:40.940Z,70.4
2022-11-23T04:41:40.952Z,70.59
2022-11-23T04:42:41.229Z,70.4
2022-11-23T04:43:41.010Z,70.59
2022-11-23T04:44:41.259Z,70.69
2022-11-23T04:45:41.297Z,70.69
2022-11-23T04:46:41.290Z,70.59
2022-11-23T04:47:41.330Z,70.69
2022-11-23T04:48:41.320Z,70.88
2022-11-23T04:49:41.336Z,70.78
2022-11-23T04:50:46.561Z,70.78
2022-11-23T04:51:41.365Z,70.78
2022-11-23T04:52:41.426Z,70.5
2022-11-23T04:53:41.152Z,70.78
2022-11-23T04:54:41.426Z,70.59
2022-11-23T04:55:41.179Z,70.4
2022-11-23T04:56:41.456Z,70.59
2022-11-23T04:57:41.214Z,70.69
2022-11-23T04:58:41.487Z,70.59
2022-11-23T04:59:41.526Z,70.59
2022-11-23T05:00:41.604Z,70.5
2022-11-23T05:01:41.744Z,70.4
2022-11-23T05:02:41.553Z,70.47
2022-11-23T05:03:41.569Z,70.59
2022-11-23T05:04:41.325Z,70.78
2022-11-23T05:05:41.603Z,70.47
2022-11-23T05:06:41.360Z,70.84
2022-11-23T05:07:41.719Z,70.88
2022-11-23T05:08:41.658Z,70.94
2022-11-23T05:09:41.401Z,70.84
2022-11-23T05:10:41.773Z,70.84
2022-11-23T05:11:41.695Z,70.84
2022-11-23T05:12:41.452Z,70.84
2022-11-23T05:13:41.726Z,71.13
2022-11-23T05:14:41.753Z,71.13
2022-11-23T05:15:41.527Z,70.94
2022-11-23T05:16:41.775Z,71.32
2022-11-23T05:17:41.860Z,71.32
2022-11-23T05:18:41.811Z,71.22
2022-11-23T05:19:41.835Z,71.03
2022-11-23T05:20:41.841Z,71.22
2022-11-23T05:21:41.868Z,71.13
2022-11-23T05:22:41.877Z,71.13
2022-11-23T05:23:41.891Z,71.13
2022-11-23T05:24:41.902Z,70.75
2022-11-23T05:25:41.933Z,70.75
2022-11-23T05:26:41.945Z,70.97
2022-11-23T05:27:41.957Z,70.84
2022-11-23T05:28:43.835Z,71.07
2022-11-23T05:29:41.999Z,70.75
2022-11-23T05:30:41.756Z,71.13
2022-11-23T05:31:42.047Z,71.13
2022-11-23T05:32:41.782Z,71.22
2022-11-23T05:33:42.093Z,71.42
2022-11-23T05:34:41.824Z,71.13
2022-11-23T05:35:41.832Z,71.03
2022-11-23T05:36:44.950Z,71.42
2022-11-23T05:37:42.122Z,70.75
2022-11-23T05:38:41.872Z,71.22
2022-11-23T05:39:42.156Z,71.22
2022-11-23T05:40:41.912Z,71.22
2022-11-23T05:41:42.185Z,71.42
2022-11-23T05:42:42.198Z,71.42
2022-11-23T05:43:42.216Z,71.42
2022-11-23T05:44:41.975Z,71.51
2022-11-23T05:45:42.249Z,71.42
2022-11-23T05:46:42.265Z,71.42
2022-11-23T05:47:42.310Z,71.61
2022-11-23T05:48:42.296Z,71.61
2022-11-23T05:49:42.334Z,71.32
2022-11-23T05:50:42.069Z,71.51
2022-11-23T05:51:42.090Z,71.51
2022-11-23T05:52:42.666Z,71.32
2022-11-23T05:53:42.389Z,71.13
2022-11-23T05:54:42.393Z,71.32
2022-11-23T05:55:42.417Z,71.42
2022-11-23T05:56:42.782Z,71.51
2022-11-23T05:57:42.187Z,71.61
2022-11-23T05:58:42.200Z,71.42
2022-11-23T05:59:42.474Z,71.42
2022-11-23T06:00:42.486Z,71.8
2022-11-23T06:01:42.510Z,71.51
2022-11-23T06:02:43.914Z,71.61
2022-11-23T06:03:42.516Z,71.8
2022-11-23T06:04:42.552Z,71.8
2022-11-23T06:05:42.598Z,71.8
2022-11-23T06:06:42.597Z,71.7
2022-11-23T06:07:42.457Z,71.8
2022-11-23T06:08:45.508Z,71.61
2022-11-23T06:09:42.632Z,71.7
2022-11-23T06:10:42.652Z,71.8
2022-11-23T06:11:42.673Z,71.8
2022-11-23T06:12:42.694Z,71.51
2022-11-23T06:13:42.698Z,71.61
2022-11-23T06:14:42.720Z,71.61
2022-11-23T06:15:42.731Z,71.7
2022-11-23T06:16:42.757Z,71.7
2022-11-23T06:17:42.761Z,71.8
2022-11-23T06:18:42.534Z,71.8
2022-11-23T06:19:42.817Z,71.98
2022-11-23T06:20:42.554Z,71.8
2022-11-23T06:21:46.175Z,71.89
2022-11-23T06:22:42.858Z,72.08
2022-11-23T06:23:42.861Z,71.7
2022-11-23T06:24:42.888Z,71.61
2022-11-23T06:25:42.903Z,71.89
2022-11-23T06:26:42.922Z,71.42
2022-11-23T06:27:42.664Z,71.42
2022-11-23T06:28:42.951Z,71.7
2022-11-23T06:29:42.961Z,71.51
2022-11-23T06:30:42.721Z,71.7
2022-11-23T06:31:42.736Z,71.89
2022-11-23T06:32:43.008Z,71.61
2022-11-23T06:33:42.767Z,71.61
2022-11-23T06:34:43.043Z,71.7
2022-11-23T06:35:43.081Z,71.51
2022-11-23T06:36:42.817Z,71.89
2022-11-23T06:37:43.113Z,71.98
2022-11-23T06:38:43.108Z,71.98
2022-11-23T06:39:42.867Z,72.08
2022-11-23T06:40:43.143Z,72.08
2022-11-23T06:41:43.154Z,72.08
2022-11-23T06:42:43.213Z,71.98
2022-11-23T06:43:43.185Z,71.98
2022-11-23T06:44:42.947Z,71.8
2022-11-23T06:45:43.280Z,71.89
2022-11-23T06:46:42.986Z,71.98
2022-11-23T06:47:43.003Z,71.89
2022-11-23T06:48:43.308Z,71.98
2022-11-23T06:49:43.287Z,72.27
2022-11-23T06:50:43.307Z,71.89
2022-11-23T06:51:43.081Z,72.37
2022-11-23T06:52:43.385Z,71.89
2022-11-23T06:53:43.370Z,72.27
2022-11-23T06:54:43.109Z,71.98
2022-11-23T06:55:43.381Z,71.89
2022-11-23T06:56:43.395Z,71.89
2022-11-23T06:57:43.414Z,71.89
2022-11-23T06:58:43.434Z,72.27
2022-11-23T06:59:47.217Z,72.17
2022-11-23T07:00:43.458Z,72.27
2022-11-23T07:01:43.594Z,72.27
2022-11-23T07:02:43.495Z,72.56
2022-11-23T07:03:43.662Z,72.46
2022-11-23T07:04:43.267Z,72.46
2022-11-23T07:05:43.547Z,72.37
2022-11-23T07:06:43.309Z,72.08
2022-11-23T07:07:43.788Z,72.37
2022-11-23T07:08:43.590Z,72.46
2022-11-23T07:09:43.632Z,72.56
2022-11-23T07:10:43.625Z,72.56
2022-11-23T07:11:43.380Z,72.46
2022-11-23T07:12:43.657Z,72.08
2022-11-23T07:13:43.409Z,72.17
2022-11-23T07:14:43.685Z,72.27
2022-11-23T07:15:43.452Z,72.27
2022-11-23T07:16:43.723Z,72.08
2022-11-23T07:17:43.737Z,72.56
2022-11-23T07:18:43.755Z,72.17
2022-11-23T07:19:43.770Z,72.37
2022-11-23T07:20:43.788Z,72.37
2022-11-23T07:21:43.542Z,72.08
2022-11-23T07:22:43.816Z,72.17
2022-11-23T07:23:43.859Z,72.08
2022-11-23T07:24:48.713Z,72.37
2022-11-23T07:25:43.889Z,71.98
2022-11-23T07:26:43.877Z,72.37
2022-11-23T07:27:43.910Z,72.37
2022-11-23T07:28:43.913Z,72.17
2022-11-23T07:29:43.941Z,72.37
2022-11-23T07:30:43.684Z,72.37
2022-11-23T07:31:43.708Z,72.08
2022-11-23T07:32:43.979Z,72.17
2022-11-23T07:33:43.996Z,72.08
2022-11-23T07:34:44.014Z,72.27
2022-11-23T07:35:44.036Z,72.37
2022-11-23T07:36:43.787Z,72.08
2022-11-23T07:37:44.087Z,72.08
2022-11-23T07:38:44.077Z,72.17
2022-11-23T07:40:00.425Z,72.17
2022-11-23T07:40:43.858Z,72.37
2022-11-23T07:41:44.215Z,72.27
2022-11-23T07:42:47.320Z,72.08
2022-11-23T07:43:44.159Z,72.27
2022-11-23T07:44:44.172Z,72.27
2022-11-23T07:45:44.192Z,72.27
2022-11-23T07:46:44.200Z,72.27
2022-11-23T07:47:44.223Z,72.08
2022-11-23T07:48:44.249Z,72.17
2022-11-23T07:49:44.260Z,72.37
2022-11-23T07:50:44.279Z,72.46
2022-11-23T07:51:44.295Z,72.17
2022-11-23T07:52:44.507Z,72.75
2022-11-23T07:53:44.318Z,72.56
2022-11-23T07:54:44.340Z,72.27
2022-11-23T07:55:44.389Z,72.08
2022-11-23T07:56:44.374Z,72.27
2022-11-23T07:57:44.409Z,72.46
2022-11-23T07:58:44.402Z,72.27
2022-11-23T07:59:44.418Z,72.37
2022-11-23T08:00:44.179Z,71.98
2022-11-23T08:01:47.411Z,71.98
2022-11-23T08:03:46.275Z,71.89
2022-11-23T08:04:46.344Z,71.89
2022-11-23T08:05:46.101Z,71.98
2022-11-23T08:06:46.415Z,71.98
2022-11-23T08:07:46.593Z,71.89
2022-11-23T08:08:46.151Z,71.98
2022-11-23T08:09:46.424Z,72.12
2022-11-23T08:10:54.087Z,71.98
2022-11-23T08:11:46.452Z,71.7
2022-11-23T08:12:46.498Z,71.51
2022-11-23T08:13:46.488Z,71.61
2022-11-23T08:14:46.250Z,71.64
2022-11-23T08:15:55.179Z,71.55
2022-11-23T08:16:46.542Z,71.73
2022-11-23T08:17:46.573Z,71.93
2022-11-23T08:18:46.317Z,71.61
2022-11-23T08:19:46.347Z,71.61
2022-11-23T08:20:46.611Z,71.83
2022-11-23T08:21:46.629Z,71.73
2022-11-23T08:22:46.639Z,71.55
2022-11-23T08:23:46.655Z,71.73
2022-11-23T08:24:46.678Z,71.73
2022-11-23T08:25:46.703Z,71.55
2022-11-23T08:26:46.469Z,71.64
2022-11-23T08:27:46.714Z,71.64
2022-11-23T08:28:46.774Z,71.83
2022-11-23T08:29:46.751Z,71.73
2022-11-23T08:30:46.509Z,71.64
2022-11-23T08:31:46.529Z,71.83
2022-11-23T08:32:46.812Z,71.64
2022-11-23T08:33:46.563Z,71.64
2022-11-23T08:34:46.841Z,71.55
2022-11-23T08:35:46.851Z,71.93
2022-11-23T08:36:46.880Z,71.64
2022-11-23T08:37:46.892Z,71.64
2022-11-23T08:38:46.910Z,71.83
2022-11-23T08:39:46.918Z,71.64
2022-11-23T08:40:46.939Z,71.73
2022-11-23T08:41:46.686Z,71.83
2022-11-23T08:42:47.095Z,71.73
2022-11-23T08:43:46.723Z,71.73
2022-11-23T08:44:47.027Z,71.55
2022-11-23T08:45:47.019Z,71.83
2022-11-23T08:46:47.034Z,71.64
2022-11-23T08:47:47.040Z,71.73
2022-11-23T08:48:47.088Z,71.83
2022-11-23T08:49:46.821Z,71.64
2022-11-23T08:50:47.103Z,71.83
2022-11-23T08:51:52.480Z,71.93
2022-11-23T08:52:47.180Z,71.93
2022-11-23T08:53:47.148Z,71.93
2022-11-23T08:54:47.166Z,71.93
2022-11-23T08:55:46.919Z,71.64
2022-11-23T08:56:46.939Z,71.93
2022-11-23T08:57:47.259Z,72.12
2022-11-23T08:58:47.253Z,71.83
2022-11-23T08:59:47.235Z,71.93
2022-11-23T09:00:47.287Z,72.12
2022-11-23T09:01:47.410Z,71.55
2022-11-23T09:02:47.035Z,71.83
2022-11-23T09:03:47.306Z,71.64
2022-11-23T09:04:47.070Z,71.83
2022-11-23T09:05:47.351Z,71.83
2022-11-23T09:06:47.360Z,71.45
2022-11-23T09:07:47.464Z,71.73
2022-11-23T09:08:47.394Z,71.64
2022-11-23T09:09:47.416Z,71.73
2022-11-23T09:10:47.425Z,71.36
2022-11-23T09:11:47.445Z,72.02
2022-11-23T09:12:47.472Z,71.93
2022-11-23T09:13:47.486Z,71.73
2022-11-23T09:14:47.260Z,71.83
2022-11-23T09:15:47.504Z,71.83
2022-11-23T09:16:47.549Z,71.93
2022-11-23T09:17:47.542Z,71.83
2022-11-23T09:18:47.552Z,71.73
2022-11-23T09:19:47.581Z,71.93
2022-11-23T09:20:47.595Z,71.83
2022-11-23T09:21:47.602Z,71.73
2022-11-23T09:22:47.775Z,71.83
2022-11-23T09:23:47.379Z,71.64
2022-11-23T09:24:47.563Z,71.64
2022-11-23T09:25:47.674Z,71.64
2022-11-23T09:26:47.699Z,71.73
2022-11-23T09:27:47.711Z,71.64
2022-11-23T09:28:47.720Z,71.45
2022-11-23T09:29:47.487Z,71.73
2022-11-23T09:30:47.518Z,71.83
2022-11-23T09:31:47.774Z,71.64
2022-11-23T09:32:47.820Z,71.73
2022-11-23T09:33:47.798Z,71.83
2022-11-23T09:34:47.817Z,71.55
2022-11-23T09:35:47.576Z,71.83
2022-11-23T09:36:47.856Z,71.83
2022-11-23T09:37:47.874Z,71.83
2022-11-23T09:38:58.911Z,71.45
2022-11-23T09:39:47.898Z,71.73
2022-11-23T09:40:47.921Z,71.45
2022-11-23T09:41:47.672Z,71.83
2022-11-23T09:42:47.956Z,71.45
2022-11-23T09:43:47.971Z,71.45
2022-11-23T09:44:47.985Z,71.36
2022-11-23T09:45:48.009Z,71.07
2022-11-23T09:46:48.036Z,71.45
2022-11-23T09:47:47.773Z,71.45
2022-11-23T09:48:48.077Z,71.64
2022-11-23T09:49:47.805Z,71.45
2022-11-23T09:50:47.840Z,71.45
2022-11-23T09:51:48.110Z,71.55
2022-11-23T09:52:48.323Z,71.55
2022-11-23T09:53:48.139Z,71.45
2022-11-23T09:54:47.896Z,71.55
2022-11-23T09:55:48.171Z,71.55
2022-11-23T09:56:48.184Z,71.36
2022-11-23T09:57:47.943Z,71.55
2022-11-23T09:58:48.225Z,71.17
2022-11-23T09:59:48.236Z,70.78
2022-11-23T10:00:48.253Z,70.97
2022-11-23T10:01:48.445Z,71.2
2022-11-23T10:02:48.306Z,70.97
2022-11-23T10:03:51.702Z,71.3
2022-11-23T10:04:48.341Z,71.11
2022-11-23T10:05:48.343Z,71.2
2022-11-23T10:06:48.095Z,70.92
2022-11-23T10:07:48.501Z,70.53
2022-11-23T10:08:48.133Z,70.53
2022-11-23T10:09:48.400Z,70.63
2022-11-23T10:10:48.158Z,70.44
2022-11-23T10:11:48.434Z,70.44
2022-11-23T10:12:48.206Z,70.72
2022-11-23T10:13:48.477Z,70.53
2022-11-23T10:14:48.491Z,70.53
2022-11-23T10:15:48.500Z,70.63
2022-11-23T10:16:48.519Z,70.44
2022-11-23T10:17:48.537Z,70.72
2022-11-23T10:18:48.586Z,70.53
2022-11-23T10:19:48.566Z,70.44
2022-11-23T10:20:48.611Z,70.63
2022-11-23T10:21:48.604Z,70.82
2022-11-23T10:22:48.611Z,70.53
2022-11-23T10:23:48.391Z,70.25
2022-11-23T10:24:48.649Z,70.34
2022-11-23T10:25:48.673Z,70.72
2022-11-23T10:26:48.677Z,70.53
2022-11-23T10:27:48.711Z,71.01
2022-11-23T10:28:48.716Z,70.44
2022-11-23T10:29:48.738Z,70.53
2022-11-23T10:30:48.870Z,70.82
2022-11-23T10:31:51.479Z,71.01
2022-11-23T10:32:48.785Z,71.01
2022-11-23T10:33:48.540Z,70.92
2022-11-23T10:34:48.849Z,71.01
2022-11-23T10:35:48.837Z,70.92
2022-11-23T10:36:48.885Z,71.2
2022-11-23T10:37:51.257Z,71.2
2022-11-23T10:38:48.627Z,71.39
2022-11-23T10:39:48.632Z,71.11
2022-11-23T10:40:48.922Z,71.39
2022-11-23T10:41:48.950Z,71.17
2022-11-23T10:42:48.980Z,71.2
2022-11-23T10:43:48.717Z,70.82
2022-11-23T10:44:48.983Z,70.92
2022-11-23T10:45:49.000Z,70.78
2022-11-23T10:46:48.758Z,70.97
2022-11-23T10:47:49.059Z,70.92
2022-11-23T10:48:49.047Z,71.11
2022-11-23T10:49:48.812Z,71.2
2022-11-23T10:50:49.125Z,71.17
2022-11-23T10:51:48.847Z,71.3
2022-11-23T10:52:49.502Z,71.48
2022-11-23T10:53:49.138Z,71.58
2022-11-23T10:54:48.894Z,71.83
2022-11-23T10:55:48.917Z,71.73
2022-11-23T10:56:49.181Z,71.3
2022-11-23T10:57:49.206Z,71.48
2022-11-23T10:58:49.223Z,71.55
2022-11-23T10:59:49.241Z,71.39
2022-11-23T11:00:49.256Z,71.55
2022-11-23T11:01:49.101Z,71.45
2022-11-23T11:02:49.276Z,71.55
2022-11-23T11:03:49.297Z,71.55
2022-11-23T11:04:51.309Z,71.55
2022-11-23T11:06:11.683Z,71.64
2022-11-23T11:06:49.356Z,71.39
2022-11-23T11:07:49.530Z,71.26
2022-11-23T11:08:49.430Z,71.39
2022-11-23T11:09:49.409Z,71.58
2022-11-23T11:10:49.419Z,71.36
2022-11-23T11:11:49.439Z,71.55
2022-11-23T11:12:49.450Z,71.48
2022-11-23T11:13:49.466Z,71.39
2022-11-23T11:14:49.785Z,71.55
2022-11-23T11:15:50.071Z,71.64
2022-11-23T11:16:50.332Z,71.39
2022-11-23T11:17:49.277Z,71.45
2022-11-23T11:18:49.558Z,71.55
2022-11-23T11:19:49.308Z,71.55
2022-11-23T11:20:49.603Z,71.26
2022-11-23T11:21:49.621Z,71.48
2022-11-23T11:22:50.462Z,71.48
2022-11-23T11:23:49.378Z,71.45
2022-11-23T11:24:49.679Z,71.45
2022-11-23T11:25:49.673Z,71.87
2022-11-23T11:26:49.423Z,71.83
2022-11-23T11:27:49.697Z,71.3
2022-11-23T11:28:49.726Z,71.87
2022-11-23T11:29:49.468Z,71.48
2022-11-23T11:30:49.746Z,71.3
2022-11-23T11:31:49.759Z,71.45
2022-11-23T11:32:49.776Z,71.48
2022-11-23T11:33:49.799Z,71.45
2022-11-23T11:34:49.823Z,71.45
2022-11-23T11:35:49.833Z,71.87
2022-11-23T11:36:49.593Z,72.02
2022-11-23T11:37:49.889Z,71.3
2022-11-23T11:39:19.044Z,71.83
2022-11-23T11:39:49.644Z,71.39
2022-11-23T11:40:49.950Z,71.36
2022-11-23T11:41:49.930Z,71.45
2022-11-23T11:42:49.687Z,71.48
2022-11-23T11:43:49.965Z,71.3
2022-11-23T11:44:49.986Z,71.58
2022-11-23T11:46:31.245Z,71.58
2022-11-23T11:46:49.751Z,71.39
2022-11-23T11:47:50.030Z,71.3
2022-11-23T11:48:50.077Z,71.58
2022-11-23T11:49:50.070Z,71.48
2022-11-23T11:50:50.083Z,71.39
2022-11-23T11:51:50.128Z,71.87
2022-11-23T11:52:50.317Z,71.68
2022-11-23T11:53:50.228Z,71.48
2022-11-23T11:54:50.217Z,71.87
2022-11-23T11:55:49.977Z,71.96
2022-11-23T11:56:50.273Z,71.77
2022-11-23T11:57:50.214Z,71.77
2022-11-23T11:58:50.230Z,71.68
2022-11-23T11:59:50.429Z,71.87
2022-11-23T12:00:50.241Z,71.48
2022-11-23T12:01:50.264Z,71.39
2022-11-23T12:02:50.379Z,71.48
2022-11-23T12:03:50.317Z,71.3
2022-11-23T12:04:50.054Z,71.48
2022-11-23T12:05:50.341Z,72.16
2022-11-23T12:06:50.343Z,71.58
2022-11-23T12:07:50.165Z,71.58
2022-11-23T12:08:50.121Z,71.58
2022-11-23T12:09:50.169Z,71.58
2022-11-23T12:10:50.422Z,71.77
2022-11-23T12:11:50.185Z,71.3
2022-11-23T12:12:50.636Z,71.48
2022-11-23T12:13:50.204Z,71.58
2022-11-23T12:14:50.223Z,71.39
2022-11-23T12:15:52.538Z,71.3
2022-11-23T12:17:51.782Z,71.58
2022-11-23T12:18:51.787Z,71.3
2022-11-23T12:19:51.818Z,71.48
2022-11-23T12:20:51.570Z,71.68
2022-11-23T12:21:56.710Z,71.3
2022-11-23T12:22:51.866Z,71.3
2022-11-23T12:23:51.878Z,71.2
2022-11-23T12:24:51.900Z,71.77
2022-11-23T12:25:51.942Z,71.48
2022-11-23T12:26:51.929Z,71.87
2022-11-23T12:27:52.077Z,71.48
2022-11-23T12:28:51.963Z,71.68
2022-11-23T12:29:51.715Z,71.58
2022-11-23T12:30:51.993Z,71.68
2022-11-23T12:31:51.761Z,71.58
2022-11-23T12:32:52.024Z,71.48
2022-11-23T12:34:52.060Z,71.68
2022-11-23T12:35:52.080Z,71.58
2022-11-23T12:36:52.093Z,71.58
2022-11-23T12:37:51.857Z,71.58
2022-11-23T12:38:52.141Z,71.58
2022-11-23T12:39:52.159Z,71.58
2022-11-23T12:40:52.154Z,71.58
2022-11-23T12:41:52.207Z,71.39
2022-11-23T12:42:52.187Z,71.2
2022-11-23T12:43:52.232Z,71.68
2022-11-23T12:44:52.222Z,71.68
2022-11-23T12:45:51.993Z,71.77
2022-11-23T12:46:52.261Z,71.3
2022-11-23T12:47:52.017Z,71.3
2022-11-23T12:48:52.032Z,71.3
2022-11-23T12:49:52.306Z,71.48
2022-11-23T12:50:52.323Z,71.68
2022-11-23T12:51:52.341Z,71.58
2022-11-23T12:52:52.358Z,71.58
2022-11-23T12:53:52.558Z,71.58
2022-11-23T12:54:52.132Z,71.77
2022-11-23T12:55:52.407Z,71.3
2022-11-23T12:56:52.423Z,71.39
2022-11-23T12:57:52.277Z,71.68
2022-11-23T12:58:52.461Z,71.3
2022-11-23T12:59:52.504Z,71.48